sensor_id;sensor_type;location;lat;lon;timestamp;P1;durP1;ratioP1;P2;durP2;ratioP2
22007;SDS011;11168;56.976;24.168;2023-11-21T00:01:11;21.45;;;10.98;;
22007;SDS011;11168;56.976;24.168;2023-11-21T00:03:38;20.00;;;10.77;;
22007;SDS011;11168;56.976;24.168;2023-11-21T00:06:05;23.40;;;11.43;;
22007;SDS011;11168;56.976;24.168;2023-11-21T00:08:36;24.42;;;12.35;;
22007;SDS011;11168;56.976;24.168;2023-11-21T00:11:04;19.73;;;11.50;;
22007;SDS011;11168;56.976;24.168;2023-11-21T00:13:33;20.45;;;11.55;;
22007;SDS011;11168;56.976;24.168;2023-11-21T00:16:01;21.98;;;12.05;;
22007;SDS011;11168;56.976;24.168;2023-11-21T00:18:28;23.38;;;13.30;;
22007;SDS011;11168;56.976;24.168;2023-11-21T00:20:55;29.73;;;16.10;;
22007;SDS011;11168;56.976;24.168;2023-11-21T00:23:25;21.42;;;11.45;;
22007;SDS011;11168;56.976;24.168;2023-11-21T00:25:52;24.83;;;13.88;;
22007;SDS011;11168;56.976;24.168;2023-11-21T00:28:19;24.52;;;12.80;;
22007;SDS011;11168;56.976;24.168;2023-11-21T00:30:46;22.55;;;11.32;;
22007;SDS011;11168;56.976;24.168;2023-11-21T00:33:12;20.42;;;11.65;;
22007;SDS011;11168;56.976;24.168;2023-11-21T00:35:40;21.13;;;11.65;;
22007;SDS011;11168;56.976;24.168;2023-11-21T00:38:07;19.13;;;10.73;;
22007;SDS011;11168;56.976;24.168;2023-11-21T00:40:35;20.27;;;10.50;;
22007;SDS011;11168;56.976;24.168;2023-11-21T00:43:02;20.73;;;10.52;;
22007;SDS011;11168;56.976;24.168;2023-11-21T00:45:31;17.83;;;10.25;;
22007;SDS011;11168;56.976;24.168;2023-11-21T00:47:58;17.88;;;10.73;;
22007;SDS011;11168;56.976;24.168;2023-11-21T00:50:25;17.90;;;10.63;;
22007;SDS011;11168;56.976;24.168;2023-11-21T00:52:53;19.08;;;11.57;;
22007;SDS011;11168;56.976;24.168;2023-11-21T00:55:20;24.25;;;14.85;;
22007;SDS011;11168;56.976;24.168;2023-11-21T00:57:47;24.15;;;14.45;;
22007;SDS011;11168;56.976;24.168;2023-11-21T01:00:14;25.27;;;14.52;;
22007;SDS011;11168;56.976;24.168;2023-11-21T01:02:43;24.17;;;14.65;;
22007;SDS011;11168;56.976;24.168;2023-11-21T01:05:11;24.48;;;14.13;;
22007;SDS011;11168;56.976;24.168;2023-11-21T01:07:38;24.00;;;14.27;;
22007;SDS011;11168;56.976;24.168;2023-11-21T01:10:05;24.70;;;13.55;;
22007;SDS011;11168;56.976;24.168;2023-11-21T01:12:34;23.90;;;13.27;;
22007;SDS011;11168;56.976;24.168;2023-11-21T01:15:06;20.42;;;13.05;;
22007;SDS011;11168;56.976;24.168;2023-11-21T01:17:34;24.33;;;15.07;;
22007;SDS011;11168;56.976;24.168;2023-11-21T01:20:02;28.92;;;15.57;;
22007;SDS011;11168;56.976;24.168;2023-11-21T01:25:00;24.25;;;13.05;;
22007;SDS011;11168;56.976;24.168;2023-11-21T01:27:26;27.20;;;14.20;;
22007;SDS011;11168;56.976;24.168;2023-11-21T01:29:53;27.55;;;13.35;;
22007;SDS011;11168;56.976;24.168;2023-11-21T01:32:20;22.45;;;13.13;;
22007;SDS011;11168;56.976;24.168;2023-11-21T01:34:48;21.73;;;13.02;;
22007;SDS011;11168;56.976;24.168;2023-11-21T01:37:16;22.25;;;12.25;;
22007;SDS011;11168;56.976;24.168;2023-11-21T01:39:43;22.05;;;12.13;;
22007;SDS011;11168;56.976;24.168;2023-11-21T01:42:10;22.70;;;11.68;;
22007;SDS011;11168;56.976;24.168;2023-11-21T01:44:39;19.60;;;11.50;;
22007;SDS011;11168;56.976;24.168;2023-11-21T01:47:07;19.92;;;10.60;;
22007;SDS011;11168;56.976;24.168;2023-11-21T01:49:35;19.33;;;11.10;;
22007;SDS011;11168;56.976;24.168;2023-11-21T01:52:03;22.95;;;11.30;;
22007;SDS011;11168;56.976;24.168;2023-11-21T01:54:30;20.10;;;10.82;;
22007;SDS011;11168;56.976;24.168;2023-11-21T01:56:58;16.38;;;10.32;;
22007;SDS011;11168;56.976;24.168;2023-11-21T02:02:08;18.67;;;9.73;;
22007;SDS011;11168;56.976;24.168;2023-11-21T02:04:36;17.45;;;10.00;;
22007;SDS011;11168;56.976;24.168;2023-11-21T02:07:03;19.55;;;10.30;;
22007;SDS011;11168;56.976;24.168;2023-11-21T02:09:33;15.88;;;9.20;;
22007;SDS011;11168;56.976;24.168;2023-11-21T02:12:00;14.65;;;8.02;;
22007;SDS011;11168;56.976;24.168;2023-11-21T02:14:28;13.88;;;8.30;;
22007;SDS011;11168;56.976;24.168;2023-11-21T02:16:57;13.13;;;7.75;;
22007;SDS011;11168;56.976;24.168;2023-11-21T02:19:24;15.88;;;7.95;;
22007;SDS011;11168;56.976;24.168;2023-11-21T02:21:57;12.75;;;7.45;;
22007;SDS011;11168;56.976;24.168;2023-11-21T02:24:27;12.88;;;7.18;;
22007;SDS011;11168;56.976;24.168;2023-11-21T02:26:54;12.05;;;7.20;;
22007;SDS011;11168;56.976;24.168;2023-11-21T02:29:22;13.98;;;7.57;;
22007;SDS011;11168;56.976;24.168;2023-11-21T02:31:54;13.10;;;7.20;;
22007;SDS011;11168;56.976;24.168;2023-11-21T02:34:22;12.82;;;6.95;;
22007;SDS011;11168;56.976;24.168;2023-11-21T02:36:51;9.27;;;5.50;;
22007;SDS011;11168;56.976;24.168;2023-11-21T02:39:18;12.18;;;6.45;;
22007;SDS011;11168;56.976;24.168;2023-11-21T02:41:49;12.65;;;6.30;;
22007;SDS011;11168;56.976;24.168;2023-11-21T02:44:16;11.75;;;6.28;;
22007;SDS011;11168;56.976;24.168;2023-11-21T02:46:43;9.25;;;5.63;;
22007;SDS011;11168;56.976;24.168;2023-11-21T02:49:10;10.50;;;6.22;;
22007;SDS011;11168;56.976;24.168;2023-11-21T02:51:38;10.60;;;6.30;;
22007;SDS011;11168;56.976;24.168;2023-11-21T02:54:05;10.35;;;6.18;;
22007;SDS011;11168;56.976;24.168;2023-11-21T02:56:34;12.45;;;6.07;;
22007;SDS011;11168;56.976;24.168;2023-11-21T02:59:01;10.75;;;5.88;;
22007;SDS011;11168;56.976;24.168;2023-11-21T03:01:28;10.02;;;5.70;;
22007;SDS011;11168;56.976;24.168;2023-11-21T03:03:55;12.73;;;6.30;;
22007;SDS011;11168;56.976;24.168;2023-11-21T03:06:23;9.55;;;5.63;;
22007;SDS011;11168;56.976;24.168;2023-11-21T03:08:50;9.73;;;5.60;;
22007;SDS011;11168;56.976;24.168;2023-11-21T03:11:17;9.13;;;5.82;;
22007;SDS011;11168;56.976;24.168;2023-11-21T03:13:44;10.13;;;5.85;;
22007;SDS011;11168;56.976;24.168;2023-11-21T03:16:11;9.02;;;5.82;;
22007;SDS011;11168;56.976;24.168;2023-11-21T03:18:39;8.70;;;6.03;;
22007;SDS011;11168;56.976;24.168;2023-11-21T03:21:07;10.52;;;5.70;;
22007;SDS011;11168;56.976;24.168;2023-11-21T03:23:37;10.70;;;5.63;;
22007;SDS011;11168;56.976;24.168;2023-11-21T03:26:04;10.70;;;5.55;;
22007;SDS011;11168;56.976;24.168;2023-11-21T03:28:32;8.73;;;5.63;;
22007;SDS011;11168;56.976;24.168;2023-11-21T03:30:59;11.75;;;5.47;;
22007;SDS011;11168;56.976;24.168;2023-11-21T03:33:26;11.52;;;5.88;;
22007;SDS011;11168;56.976;24.168;2023-11-21T03:35:53;8.35;;;5.25;;
22007;SDS011;11168;56.976;24.168;2023-11-21T03:38:20;8.57;;;5.68;;
22007;SDS011;11168;56.976;24.168;2023-11-21T03:40:47;12.02;;;6.10;;
22007;SDS011;11168;56.976;24.168;2023-11-21T03:43:14;10.80;;;5.40;;
22007;SDS011;11168;56.976;24.168;2023-11-21T03:45:41;11.07;;;5.63;;
22007;SDS011;11168;56.976;24.168;2023-11-21T03:48:08;10.13;;;6.03;;
22007;SDS011;11168;56.976;24.168;2023-11-21T03:50:35;12.45;;;6.45;;
22007;SDS011;11168;56.976;24.168;2023-11-21T03:53:02;11.60;;;6.45;;
22007;SDS011;11168;56.976;24.168;2023-11-21T03:55:30;9.90;;;5.72;;
22007;SDS011;11168;56.976;24.168;2023-11-21T03:57:58;7.90;;;5.13;;
22007;SDS011;11168;56.976;24.168;2023-11-21T04:00:25;11.77;;;6.63;;
22007;SDS011;11168;56.976;24.168;2023-11-21T04:02:53;10.52;;;6.47;;
22007;SDS011;11168;56.976;24.168;2023-11-21T04:05:21;10.82;;;6.78;;
22007;SDS011;11168;56.976;24.168;2023-11-21T04:07:49;9.55;;;5.78;;
22007;SDS011;11168;56.976;24.168;2023-11-21T04:10:17;9.77;;;6.00;;
22007;SDS011;11168;56.976;24.168;2023-11-21T04:12:44;11.15;;;5.88;;
22007;SDS011;11168;56.976;24.168;2023-11-21T04:15:12;11.75;;;5.60;;
22007;SDS011;11168;56.976;24.168;2023-11-21T04:17:40;10.40;;;5.80;;
22007;SDS011;11168;56.976;24.168;2023-11-21T04:20:08;12.50;;;6.00;;
22007;SDS011;11168;56.976;24.168;2023-11-21T04:22:36;11.23;;;6.53;;
22007;SDS011;11168;56.976;24.168;2023-11-21T04:25:10;13.63;;;8.13;;
22007;SDS011;11168;56.976;24.168;2023-11-21T04:27:41;16.13;;;7.72;;
22007;SDS011;11168;56.976;24.168;2023-11-21T04:30:12;19.02;;;8.07;;
22007;SDS011;11168;56.976;24.168;2023-11-21T04:32:40;11.40;;;6.88;;
22007;SDS011;11168;56.976;24.168;2023-11-21T04:35:08;11.90;;;6.85;;
22007;SDS011;11168;56.976;24.168;2023-11-21T04:37:35;13.27;;;7.00;;
22007;SDS011;11168;56.976;24.168;2023-11-21T04:40:02;11.68;;;5.95;;
22007;SDS011;11168;56.976;24.168;2023-11-21T04:42:36;10.75;;;6.05;;
22007;SDS011;11168;56.976;24.168;2023-11-21T04:45:04;12.02;;;6.25;;
22007;SDS011;11168;56.976;24.168;2023-11-21T04:47:35;13.43;;;6.80;;
22007;SDS011;11168;56.976;24.168;2023-11-21T04:50:03;12.55;;;6.32;;
22007;SDS011;11168;56.976;24.168;2023-11-21T04:52:32;16.80;;;6.38;;
22007;SDS011;11168;56.976;24.168;2023-11-21T04:54:59;20.77;;;8.88;;
22007;SDS011;11168;56.976;24.168;2023-11-21T04:57:28;32.75;;;13.50;;
22007;SDS011;11168;56.976;24.168;2023-11-21T04:59:55;35.90;;;15.77;;
22007;SDS011;11168;56.976;24.168;2023-11-21T05:02:22;28.70;;;12.23;;
22007;SDS011;11168;56.976;24.168;2023-11-21T05:05:01;36.03;;;15.35;;
22007;SDS011;11168;56.976;24.168;2023-11-21T05:07:29;37.60;;;16.02;;
22007;SDS011;11168;56.976;24.168;2023-11-21T05:09:58;35.17;;;14.40;;
22007;SDS011;11168;56.976;24.168;2023-11-21T05:12:25;25.98;;;11.43;;
22007;SDS011;11168;56.976;24.168;2023-11-21T05:14:52;20.15;;;10.43;;
22007;SDS011;11168;56.976;24.168;2023-11-21T05:17:19;18.80;;;10.88;;
22007;SDS011;11168;56.976;24.168;2023-11-21T05:19:46;21.65;;;10.77;;
22007;SDS011;11168;56.976;24.168;2023-11-21T05:22:15;20.30;;;10.68;;
22007;SDS011;11168;56.976;24.168;2023-11-21T05:24:42;19.45;;;9.70;;
22007;SDS011;11168;56.976;24.168;2023-11-21T05:27:09;18.67;;;9.85;;
22007;SDS011;11168;56.976;24.168;2023-11-21T05:29:36;18.75;;;9.77;;
22007;SDS011;11168;56.976;24.168;2023-11-21T05:32:06;21.67;;;10.13;;
22007;SDS011;11168;56.976;24.168;2023-11-21T05:34:33;19.80;;;9.82;;
22007;SDS011;11168;56.976;24.168;2023-11-21T05:37:00;25.55;;;9.70;;
22007;SDS011;11168;56.976;24.168;2023-11-21T05:39:27;20.45;;;9.57;;
22007;SDS011;11168;56.976;24.168;2023-11-21T05:41:54;22.70;;;9.02;;
22007;SDS011;11168;56.976;24.168;2023-11-21T05:44:21;22.48;;;8.88;;
22007;SDS011;11168;56.976;24.168;2023-11-21T05:46:49;18.77;;;9.13;;
22007;SDS011;11168;56.976;24.168;2023-11-21T05:49:17;17.75;;;8.57;;
22007;SDS011;11168;56.976;24.168;2023-11-21T05:51:46;16.98;;;7.05;;
22007;SDS011;11168;56.976;24.168;2023-11-21T05:54:13;9.52;;;5.60;;
22007;SDS011;11168;56.976;24.168;2023-11-21T05:56:40;10.93;;;5.28;;
22007;SDS011;11168;56.976;24.168;2023-11-21T05:59:07;9.38;;;5.25;;
22007;SDS011;11168;56.976;24.168;2023-11-21T06:01:34;10.98;;;5.50;;
22007;SDS011;11168;56.976;24.168;2023-11-21T06:04:05;10.10;;;5.40;;
22007;SDS011;11168;56.976;24.168;2023-11-21T06:06:35;10.35;;;5.28;;
22007;SDS011;11168;56.976;24.168;2023-11-21T06:09:02;8.48;;;5.50;;
22007;SDS011;11168;56.976;24.168;2023-11-21T06:11:29;7.85;;;4.80;;
22007;SDS011;11168;56.976;24.168;2023-11-21T06:13:56;12.25;;;5.72;;
22007;SDS011;11168;56.976;24.168;2023-11-21T06:16:23;8.88;;;5.43;;
22007;SDS011;11168;56.976;24.168;2023-11-21T06:18:50;9.60;;;5.30;;
22007;SDS011;11168;56.976;24.168;2023-11-21T06:21:17;9.55;;;5.57;;
22007;SDS011;11168;56.976;24.168;2023-11-21T06:23:44;13.07;;;6.35;;
22007;SDS011;11168;56.976;24.168;2023-11-21T06:26:11;15.30;;;7.43;;
22007;SDS011;11168;56.976;24.168;2023-11-21T06:28:39;31.33;;;11.75;;
22007;SDS011;11168;56.976;24.168;2023-11-21T06:31:06;33.03;;;14.30;;
22007;SDS011;11168;56.976;24.168;2023-11-21T06:33:33;37.97;;;14.60;;
22007;SDS011;11168;56.976;24.168;2023-11-21T06:36:00;32.83;;;12.40;;
22007;SDS011;11168;56.976;24.168;2023-11-21T06:38:30;24.93;;;10.93;;
22007;SDS011;11168;56.976;24.168;2023-11-21T06:40:58;39.35;;;13.27;;
22007;SDS011;11168;56.976;24.168;2023-11-21T06:43:28;34.92;;;14.20;;
22007;SDS011;11168;56.976;24.168;2023-11-21T06:45:57;37.03;;;15.57;;
22007;SDS011;11168;56.976;24.168;2023-11-21T06:48:25;33.65;;;14.00;;
22007;SDS011;11168;56.976;24.168;2023-11-21T06:50:52;31.48;;;12.30;;
22007;SDS011;11168;56.976;24.168;2023-11-21T06:53:19;30.23;;;11.85;;
22007;SDS011;11168;56.976;24.168;2023-11-21T06:55:46;26.10;;;11.70;;
22007;SDS011;11168;56.976;24.168;2023-11-21T06:58:12;28.63;;;11.80;;
22007;SDS011;11168;56.976;24.168;2023-11-21T07:00:41;24.92;;;11.23;;
22007;SDS011;11168;56.976;24.168;2023-11-21T07:03:12;26.85;;;11.30;;
22007;SDS011;11168;56.976;24.168;2023-11-21T07:05:40;22.02;;;9.65;;
22007;SDS011;11168;56.976;24.168;2023-11-21T07:08:07;20.35;;;8.52;;
22007;SDS011;11168;56.976;24.168;2023-11-21T07:10:34;17.70;;;7.97;;
22007;SDS011;11168;56.976;24.168;2023-11-21T07:13:03;15.93;;;7.20;;
22007;SDS011;11168;56.976;24.168;2023-11-21T07:15:30;14.60;;;6.28;;
22007;SDS011;11168;56.976;24.168;2023-11-21T07:17:57;14.35;;;5.88;;
22007;SDS011;11168;56.976;24.168;2023-11-21T07:20:24;10.80;;;5.28;;
22007;SDS011;11168;56.976;24.168;2023-11-21T07:22:51;9.70;;;5.68;;
22007;SDS011;11168;56.976;24.168;2023-11-21T07:25:18;9.52;;;5.32;;
22007;SDS011;11168;56.976;24.168;2023-11-21T07:27:45;10.13;;;5.43;;
22007;SDS011;11168;56.976;24.168;2023-11-21T07:30:12;10.35;;;5.35;;
22007;SDS011;11168;56.976;24.168;2023-11-21T07:32:39;8.15;;;5.32;;
22007;SDS011;11168;56.976;24.168;2023-11-21T07:35:07;9.57;;;5.72;;
22007;SDS011;11168;56.976;24.168;2023-11-21T07:37:35;9.18;;;5.40;;
22007;SDS011;11168;56.976;24.168;2023-11-21T07:40:02;14.63;;;6.20;;
22007;SDS011;11168;56.976;24.168;2023-11-21T07:42:29;9.02;;;6.18;;
22007;SDS011;11168;56.976;24.168;2023-11-21T07:44:56;10.68;;;5.82;;
22007;SDS011;11168;56.976;24.168;2023-11-21T07:47:23;13.32;;;6.13;;
22007;SDS011;11168;56.976;24.168;2023-11-21T07:49:53;12.55;;;7.05;;
22007;SDS011;11168;56.976;24.168;2023-11-21T07:52:22;10.82;;;6.50;;
22007;SDS011;11168;56.976;24.168;2023-11-21T07:54:50;12.52;;;6.53;;
22007;SDS011;11168;56.976;24.168;2023-11-21T07:57:17;9.98;;;6.18;;
22007;SDS011;11168;56.976;24.168;2023-11-21T07:59:44;9.43;;;6.05;;
22007;SDS011;11168;56.976;24.168;2023-11-21T08:02:11;10.32;;;5.68;;
22007;SDS011;11168;56.976;24.168;2023-11-21T08:04:38;8.18;;;5.50;;
22007;SDS011;11168;56.976;24.168;2023-11-21T08:07:05;10.38;;;5.63;;
22007;SDS011;11168;56.976;24.168;2023-11-21T08:09:32;11.23;;;5.10;;
22007;SDS011;11168;56.976;24.168;2023-11-21T08:12:00;10.93;;;5.70;;
22007;SDS011;11168;56.976;24.168;2023-11-21T08:14:29;8.95;;;5.05;;
22007;SDS011;11168;56.976;24.168;2023-11-21T08:16:56;8.65;;;5.00;;
22007;SDS011;11168;56.976;24.168;2023-11-21T08:19:24;8.43;;;5.03;;
22007;SDS011;11168;56.976;24.168;2023-11-21T08:21:51;10.75;;;5.35;;
22007;SDS011;11168;56.976;24.168;2023-11-21T08:24:21;15.02;;;5.85;;
22007;SDS011;11168;56.976;24.168;2023-11-21T08:26:48;9.88;;;5.43;;
22007;SDS011;11168;56.976;24.168;2023-11-21T08:29:16;10.15;;;5.70;;
22007;SDS011;11168;56.976;24.168;2023-11-21T08:31:43;13.05;;;5.65;;
22007;SDS011;11168;56.976;24.168;2023-11-21T08:34:13;14.70;;;5.23;;
22007;SDS011;11168;56.976;24.168;2023-11-21T08:36:42;10.85;;;5.72;;
22007;SDS011;11168;56.976;24.168;2023-11-21T08:39:09;11.43;;;6.72;;
22007;SDS011;11168;56.976;24.168;2023-11-21T08:41:36;10.45;;;6.32;;
22007;SDS011;11168;56.976;24.168;2023-11-21T08:44:03;12.45;;;6.53;;
22007;SDS011;11168;56.976;24.168;2023-11-21T08:46:33;13.25;;;7.45;;
22007;SDS011;11168;56.976;24.168;2023-11-21T08:49:01;10.10;;;6.20;;
22007;SDS011;11168;56.976;24.168;2023-11-21T08:51:28;10.52;;;6.80;;
22007;SDS011;11168;56.976;24.168;2023-11-21T08:53:55;11.77;;;6.70;;
22007;SDS011;11168;56.976;24.168;2023-11-21T08:58:53;20.10;;;7.60;;
22007;SDS011;11168;56.976;24.168;2023-11-21T09:01:20;12.60;;;6.68;;
22007;SDS011;11168;56.976;24.168;2023-11-21T09:03:47;15.63;;;7.50;;
22007;SDS011;11168;56.976;24.168;2023-11-21T09:06:16;16.60;;;7.07;;
22007;SDS011;11168;56.976;24.168;2023-11-21T09:08:43;16.77;;;7.47;;
22007;SDS011;11168;56.976;24.168;2023-11-21T09:11:10;13.88;;;7.13;;
22007;SDS011;11168;56.976;24.168;2023-11-21T09:13:37;13.27;;;7.90;;
22007;SDS011;11168;56.976;24.168;2023-11-21T09:16:04;15.68;;;7.95;;
22007;SDS011;11168;56.976;24.168;2023-11-21T09:18:32;12.52;;;7.45;;
22007;SDS011;11168;56.976;24.168;2023-11-21T09:20:59;12.88;;;6.88;;
22007;SDS011;11168;56.976;24.168;2023-11-21T09:23:26;13.23;;;7.05;;
22007;SDS011;11168;56.976;24.168;2023-11-21T09:25:53;12.77;;;7.05;;
22007;SDS011;11168;56.976;24.168;2023-11-21T09:28:23;13.23;;;7.13;;
22007;SDS011;11168;56.976;24.168;2023-11-21T09:30:50;13.70;;;7.18;;
22007;SDS011;11168;56.976;24.168;2023-11-21T09:33:17;21.73;;;7.53;;
22007;SDS011;11168;56.976;24.168;2023-11-21T09:35:44;16.55;;;7.30;;
22007;SDS011;11168;56.976;24.168;2023-11-21T09:38:11;15.40;;;7.35;;
22007;SDS011;11168;56.976;24.168;2023-11-21T09:40:38;16.25;;;7.63;;
22007;SDS011;11168;56.976;24.168;2023-11-21T09:43:06;15.15;;;8.52;;
22007;SDS011;11168;56.976;24.168;2023-11-21T09:45:46;14.52;;;6.60;;
22007;SDS011;11168;56.976;24.168;2023-11-21T09:48:14;15.82;;;7.63;;
22007;SDS011;11168;56.976;24.168;2023-11-21T09:50:43;15.93;;;7.57;;
22007;SDS011;11168;56.976;24.168;2023-11-21T09:53:13;13.18;;;7.22;;
22007;SDS011;11168;56.976;24.168;2023-11-21T09:55:49;11.82;;;5.68;;
22007;SDS011;11168;56.976;24.168;2023-11-21T09:58:18;15.90;;;6.80;;
22007;SDS011;11168;56.976;24.168;2023-11-21T10:00:47;11.63;;;6.72;;
22007;SDS011;11168;56.976;24.168;2023-11-21T10:03:15;10.95;;;6.22;;
22007;SDS011;11168;56.976;24.168;2023-11-21T10:05:42;15.07;;;5.70;;
22007;SDS011;11168;56.976;24.168;2023-11-21T10:08:12;11.35;;;6.05;;
22007;SDS011;11168;56.976;24.168;2023-11-21T10:10:43;13.63;;;6.75;;
22007;SDS011;11168;56.976;24.168;2023-11-21T10:13:12;18.38;;;8.35;;
22007;SDS011;11168;56.976;24.168;2023-11-21T10:15:43;19.38;;;8.32;;
22007;SDS011;11168;56.976;24.168;2023-11-21T10:18:15;17.48;;;8.25;;
22007;SDS011;11168;56.976;24.168;2023-11-21T10:20:42;28.13;;;8.38;;
22007;SDS011;11168;56.976;24.168;2023-11-21T10:23:12;19.17;;;7.80;;
22007;SDS011;11168;56.976;24.168;2023-11-21T10:25:42;16.65;;;8.43;;
22007;SDS011;11168;56.976;24.168;2023-11-21T10:28:09;18.33;;;9.43;;
22007;SDS011;11168;56.976;24.168;2023-11-21T10:30:37;24.67;;;10.18;;
22007;SDS011;11168;56.976;24.168;2023-11-21T10:33:05;26.02;;;9.38;;
22007;SDS011;11168;56.976;24.168;2023-11-21T10:38:13;28.98;;;11.10;;
22007;SDS011;11168;56.976;24.168;2023-11-21T10:40:41;23.88;;;9.48;;
22007;SDS011;11168;56.976;24.168;2023-11-21T10:43:09;17.90;;;9.40;;
22007;SDS011;11168;56.976;24.168;2023-11-21T10:45:37;27.13;;;10.57;;
22007;SDS011;11168;56.976;24.168;2023-11-21T10:48:05;27.23;;;10.65;;
22007;SDS011;11168;56.976;24.168;2023-11-21T10:50:37;29.63;;;10.70;;
22007;SDS011;11168;56.976;24.168;2023-11-21T10:53:04;29.88;;;11.20;;
22007;SDS011;11168;56.976;24.168;2023-11-21T10:55:34;26.73;;;11.98;;
22007;SDS011;11168;56.976;24.168;2023-11-21T10:58:02;24.20;;;11.23;;
22007;SDS011;11168;56.976;24.168;2023-11-21T11:00:31;36.40;;;12.15;;
22007;SDS011;11168;56.976;24.168;2023-11-21T11:02:59;30.52;;;12.32;;
22007;SDS011;11168;56.976;24.168;2023-11-21T11:05:28;30.52;;;11.65;;
22007;SDS011;11168;56.976;24.168;2023-11-21T11:07:58;28.92;;;12.07;;
22007;SDS011;11168;56.976;24.168;2023-11-21T11:10:28;33.40;;;13.02;;
22007;SDS011;11168;56.976;24.168;2023-11-21T11:12:56;34.65;;;12.50;;
22007;SDS011;11168;56.976;24.168;2023-11-21T11:15:24;23.95;;;10.82;;
22007;SDS011;11168;56.976;24.168;2023-11-21T11:17:53;29.48;;;11.73;;
22007;SDS011;11168;56.976;24.168;2023-11-21T11:20:30;28.33;;;11.70;;
22007;SDS011;11168;56.976;24.168;2023-11-21T11:31:37;22.23;;;10.57;;
22007;SDS011;11168;56.976;24.168;2023-11-21T11:34:32;18.02;;;8.35;;
22007;SDS011;11168;56.976;24.168;2023-11-21T11:37:06;22.10;;;10.50;;
22007;SDS011;11168;56.976;24.168;2023-11-21T11:39:40;20.98;;;10.32;;
22007;SDS011;11168;56.976;24.168;2023-11-21T11:42:14;24.63;;;10.32;;
22007;SDS011;11168;56.976;24.168;2023-11-21T11:47:14;29.02;;;12.43;;
22007;SDS011;11168;56.976;24.168;2023-11-21T11:49:56;31.33;;;14.63;;
22007;SDS011;11168;56.976;24.168;2023-11-21T11:52:41;28.60;;;13.15;;
22007;SDS011;11168;56.976;24.168;2023-11-21T11:55:10;34.30;;;13.98;;
22007;SDS011;11168;56.976;24.168;2023-11-21T11:57:48;31.50;;;15.15;;
22007;SDS011;11168;56.976;24.168;2023-11-21T12:00:22;31.27;;;14.52;;
22007;SDS011;11168;56.976;24.168;2023-11-21T12:02:56;34.60;;;13.95;;
22007;SDS011;11168;56.976;24.168;2023-11-21T12:05:26;29.55;;;13.93;;
22007;SDS011;11168;56.976;24.168;2023-11-21T12:08:02;28.65;;;13.57;;
22007;SDS011;11168;56.976;24.168;2023-11-21T12:10:30;30.67;;;12.40;;
22007;SDS011;11168;56.976;24.168;2023-11-21T12:13:05;30.10;;;13.88;;
22007;SDS011;11168;56.976;24.168;2023-11-21T12:15:34;30.30;;;14.15;;
22007;SDS011;11168;56.976;24.168;2023-11-21T12:18:02;34.45;;;14.23;;
22007;SDS011;11168;56.976;24.168;2023-11-21T12:20:30;30.15;;;14.77;;
22007;SDS011;11168;56.976;24.168;2023-11-21T12:22:58;24.83;;;13.57;;
22007;SDS011;11168;56.976;24.168;2023-11-21T12:25:30;29.23;;;14.27;;
22007;SDS011;11168;56.976;24.168;2023-11-21T12:28:01;29.73;;;14.93;;
22007;SDS011;11168;56.976;24.168;2023-11-21T12:30:30;27.52;;;14.50;;
22007;SDS011;11168;56.976;24.168;2023-11-21T12:32:58;33.47;;;14.43;;
22007;SDS011;11168;56.976;24.168;2023-11-21T12:35:28;28.42;;;14.32;;
22007;SDS011;11168;56.976;24.168;2023-11-21T12:37:57;29.93;;;14.73;;
22007;SDS011;11168;56.976;24.168;2023-11-21T12:40:25;28.05;;;13.73;;
22007;SDS011;11168;56.976;24.168;2023-11-21T12:42:54;37.00;;;15.10;;
22007;SDS011;11168;56.976;24.168;2023-11-21T12:45:24;37.92;;;15.57;;
22007;SDS011;11168;56.976;24.168;2023-11-21T12:47:59;42.40;;;16.08;;
22007;SDS011;11168;56.976;24.168;2023-11-21T12:50:30;37.35;;;16.80;;
22007;SDS011;11168;56.976;24.168;2023-11-21T12:53:01;36.40;;;15.63;;
22007;SDS011;11168;56.976;24.168;2023-11-21T12:55:35;38.17;;;17.05;;
22007;SDS011;11168;56.976;24.168;2023-11-21T12:58:07;37.05;;;17.85;;
22007;SDS011;11168;56.976;24.168;2023-11-21T13:00:45;40.65;;;17.77;;
22007;SDS011;11168;56.976;24.168;2023-11-21T13:03:14;39.03;;;17.80;;
22007;SDS011;11168;56.976;24.168;2023-11-21T13:05:46;40.35;;;18.38;;
22007;SDS011;11168;56.976;24.168;2023-11-21T13:08:21;40.83;;;17.88;;
22007;SDS011;11168;56.976;24.168;2023-11-21T13:10:51;35.33;;;18.43;;
22007;SDS011;11168;56.976;24.168;2023-11-21T13:13:24;37.55;;;17.52;;
22007;SDS011;11168;56.976;24.168;2023-11-21T13:16:01;36.70;;;17.88;;
22007;SDS011;11168;56.976;24.168;2023-11-21T13:18:32;43.05;;;19.40;;
22007;SDS011;11168;56.976;24.168;2023-11-21T13:21:03;43.28;;;19.30;;
22007;SDS011;11168;56.976;24.168;2023-11-21T13:23:41;43.15;;;19.83;;
22007;SDS011;11168;56.976;24.168;2023-11-21T13:26:09;51.03;;;20.75;;
22007;SDS011;11168;56.976;24.168;2023-11-21T13:28:36;46.05;;;21.70;;
22007;SDS011;11168;56.976;24.168;2023-11-21T13:31:05;50.30;;;20.48;;
22007;SDS011;11168;56.976;24.168;2023-11-21T13:33:48;49.33;;;20.52;;
22007;SDS011;11168;56.976;24.168;2023-11-21T13:36:23;43.17;;;18.92;;
22007;SDS011;11168;56.976;24.168;2023-11-21T13:38:51;44.65;;;18.95;;
22007;SDS011;11168;56.976;24.168;2023-11-21T13:41:21;45.97;;;18.48;;
22007;SDS011;11168;56.976;24.168;2023-11-21T13:43:57;39.97;;;16.42;;
22007;SDS011;11168;56.976;24.168;2023-11-21T13:46:53;38.08;;;16.42;;
22007;SDS011;11168;56.976;24.168;2023-11-21T13:49:23;36.97;;;15.30;;
22007;SDS011;11168;56.976;24.168;2023-11-21T13:51:51;31.50;;;15.07;;
22007;SDS011;11168;56.976;24.168;2023-11-21T13:54:21;34.15;;;15.45;;
22007;SDS011;11168;56.976;24.168;2023-11-21T13:56:50;32.80;;;15.57;;
22007;SDS011;11168;56.976;24.168;2023-11-21T13:59:17;39.53;;;16.48;;
22007;SDS011;11168;56.976;24.168;2023-11-21T14:01:50;39.75;;;17.17;;
22007;SDS011;11168;56.976;24.168;2023-11-21T14:04:27;42.22;;;17.08;;
22007;SDS011;11168;56.976;24.168;2023-11-21T14:06:57;36.22;;;15.80;;
22007;SDS011;11168;56.976;24.168;2023-11-21T14:09:27;33.77;;;15.47;;
22007;SDS011;11168;56.976;24.168;2023-11-21T14:12:00;29.98;;;15.10;;
22007;SDS011;11168;56.976;24.168;2023-11-21T14:14:29;36.50;;;16.13;;
22007;SDS011;11168;56.976;24.168;2023-11-21T14:16:56;30.60;;;15.73;;
22007;SDS011;11168;56.976;24.168;2023-11-21T14:19:25;43.10;;;15.70;;
22007;SDS011;11168;56.976;24.168;2023-11-21T14:21:58;41.05;;;18.80;;
22007;SDS011;11168;56.976;24.168;2023-11-21T14:24:25;42.25;;;18.33;;
22007;SDS011;11168;56.976;24.168;2023-11-21T14:26:52;28.38;;;13.63;;
22007;SDS011;11168;56.976;24.168;2023-11-21T14:29:19;30.95;;;14.05;;
22007;SDS011;11168;56.976;24.168;2023-11-21T14:31:48;37.22;;;16.90;;
22007;SDS011;11168;56.976;24.168;2023-11-21T14:34:22;33.08;;;15.73;;
22007;SDS011;11168;56.976;24.168;2023-11-21T14:36:50;39.05;;;16.08;;
22007;SDS011;11168;56.976;24.168;2023-11-21T14:39:17;35.17;;;16.38;;
22007;SDS011;11168;56.976;24.168;2023-11-21T14:41:50;37.75;;;14.98;;
22007;SDS011;11168;56.976;24.168;2023-11-21T14:44:19;39.75;;;16.10;;
22007;SDS011;11168;56.976;24.168;2023-11-21T14:46:46;39.20;;;17.88;;